Time;durP1;ratioP1;P1;durP2;ratioP2;P2;SDS_P1;SDS_P2;PMS_P1;PMS_P2;Temp;Humidity;BMP_temperature;BMP_pressure;BME280_temperature;BME280_humidity;BME280_pressure;Samples;Min_cycle;Max_cycle;Signal;HPM_P1;HPM_P2
2022/01/27 00:05:35;;;;;;;171.15;88.82;;;;;;;-2.24;73.33;98445.81;10372963;28;20491;-59
2022/01/27 00:15:40;;;;;;;152.77;85.25;;;;;;;-2.25;72.88;98444.03;10372575;28;20068;-59
2022/01/27 00:20:40;;;;;;;152.02;85.20;;;;;;;-2.25;72.63;98426.25;10372932;28;20068;-59
2022/01/27 00:25:39;;;;;;;144.63;83.57;;;;;;;-2.19;72.78;98444.44;10369025;28;20060;-59
2022/01/27 00:30:39;;;;;;;159.15;90.13;;;;;;;-2.21;72.65;98446.00;10372392;28;20064;-59
2022/01/27 00:35:38;;;;;;;165.32;94.68;;;;;;;-2.89;72.10;98333.47;10372413;28;20057;-59
2022/01/27 00:40:37;;;;;;;163.88;90.63;;;;;;;-2.37;72.61;98428.06;10372439;28;20086;-59
2022/01/27 00:45:37;;;;;;;172.75;96.72;;;;;;;-2.65;72.45;98389.94;10372347;28;20055;-59
2022/01/27 00:50:37;;;;;;;167.57;95.10;;;;;;;-2.22;72.36;98454.41;10372006;28;20475;-59
2022/01/27 00:55:40;;;;;;;175.02;97.90;;;;;;;-2.17;72.58;98453.03;10368207;28;20107;-59
2022/01/27 01:00:50;;;;;;;189.00;104.43;;;;;;;-2.45;72.40;98396.22;10372011;28;20071;-59
2022/01/27 01:16:11;;;;;;;223.52;122.72;;;;;;;-2.08;73.06;98437.41;10371712;28;20083;-59
2022/01/27 01:21:40;;;;;;;261.85;143.70;;;;;;;-2.05;72.85;98440.16;10371275;28;20103;-59
2022/01/27 01:37:05;;;;;;;206.07;114.63;;;;;;;-2.00;73.20;98435.34;10379040;28;20460;-59
2022/01/27 01:42:07;;;;;;;209.57;116.72;;;;;;;-1.97;73.20;98426.22;10378094;28;20072;-59
2022/01/27 01:47:06;;;;;;;200.00;113.95;;;;;;;-2.01;73.66;98403.06;10377461;28;20079;-59
2022/01/27 01:52:08;;;;;;;209.60;115.68;;;;;;;-1.88;73.75;98410.63;10377821;28;20075;-59
2022/01/27 01:57:07;;;;;;;207.98;112.78;;;;;;;-1.97;73.37;98390.63;10374415;28;20064;-59
2022/01/27 02:02:06;;;;;;;206.82;111.68;;;;;;;-1.91;73.22;98410.47;10378279;28;20075;-59
2022/01/27 02:07:12;;;;;;;206.85;109.65;;;;;;;-1.90;73.19;98412.19;10375928;28;20582;-59
2022/01/27 02:22:46;;;;;;;245.93;130.32;;;;;;;-1.96;73.37;98406.75;10376823;28;20131;-59
2022/01/27 02:27:45;;;;;;;238.40;129.57;;;;;;;-1.93;73.74;98407.81;10373608;28;20032;-59
2022/01/27 02:32:45;;;;;;;246.20;132.93;;;;;;;-2.20;73.80;98360.44;10376079;28;20075;-59
2022/01/27 02:37:44;;;;;;;;;;;;;;;-1.93;73.72;98417.13;10376434;28;20508;-59
2022/01/27 02:42:42;;;;;;;235.93;124.53;;;;;;;-1.97;74.05;98410.09;10375371;28;20334;-59
2022/01/27 02:47:42;;;;;;;220.48;123.75;;;;;;;-2.08;74.35;98402.72;10376513;28;20036;-59
2022/01/27 02:52:41;;;;;;;215.85;119.60;;;;;;;-2.05;74.47;98419.81;10375773;28;20076;-59
2022/01/27 02:57:40;;;;;;;218.18;118.90;;;;;;;-2.08;74.54;98410.34;10375203;28;20040;-59
2022/01/27 03:02:39;;;;;;;198.70;113.53;;;;;;;-2.67;74.68;98316.16;10373069;28;20069;-59
2022/01/27 03:07:38;;;;;;;189.60;106.45;;;;;;;-2.38;75.23;98368.75;10374995;28;20052;-59
2022/01/27 03:12:38;;;;;;;196.50;110.70;;;;;;;-2.73;74.79;98298.03;10375285;28;20068;-59
2022/01/27 03:17:38;;;;;;;207.05;113.25;;;;;;;-2.12;75.18;98426.22;10374263;28;20491;-59
2022/01/27 03:22:37;;;;;;;204.80;116.15;;;;;;;-2.14;75.11;98411.66;10375149;28;20071;-59
2022/01/27 03:27:36;;;;;;;211.80;116.90;;;;;;;-2.16;75.28;98415.75;10374475;28;20028;-59
2022/01/27 03:32:35;;;;;;;233.45;125.40;;;;;;;-2.12;75.53;98405.88;10370711;28;20075;-59
2022/01/27 03:37:34;;;;;;;239.07;130.07;;;;;;;-2.14;75.65;98409.97;10373623;28;20025;-59
2022/01/27 03:42:42;;;;;;;241.90;130.77;;;;;;;-2.12;75.42;98392.28;10373945;28;20071;-59
2022/01/27 03:47:41;;;;;;;218.55;123.85;;;;;;;-2.42;75.46;98340.50;10373466;28;20084;-59
2022/01/27 03:52:39;;;;;;;209.32;116.28;;;;;;;-2.31;75.39;98354.72;10373290;28;20480;-59
2022/01/27 03:57:38;;;;;;;201.93;112.60;;;;;;;-2.00;75.81;98405.72;10374804;28;20503;-59
2022/01/27 04:02:48;;;;;;;210.85;119.53;;;;;;;-2.16;75.76;98392.88;10369902;28;20028;-59
2022/01/27 04:07:47;;;;;;;203.60;114.32;;;;;;;-3.36;75.93;98188.53;10372888;28;20061;-59
2022/01/27 04:12:46;;;;;;;215.63;121.38;;;;;;;-2.44;76.11;98331.91;10373290;28;20056;-59
2022/01/27 04:17:45;;;;;;;194.15;108.45;;;;;;;-2.24;76.55;98400.06;10372642;28;20370;-59
2022/01/27 04:22:44;;;;;;;202.25;112.03;;;;;;;-2.45;77.36;98406.38;10372168;28;20045;-59
2022/01/27 04:27:48;;;;;;;;;;;;;;;-2.80;78.48;98407.69;10373549;28;20072;-59
2022/01/27 04:33:00;;;;;;;198.02;105.32;;;;;;;-2.93;79.14;98411.97;10368734;28;19948;-59
2022/01/27 04:43:22;;;;;;;159.40;89.00;;;;;;;-2.83;78.81;98420.16;10372529;28;20080;-59
2022/01/27 04:48:23;;;;;;;151.00;85.63;;;;;;;-2.82;78.45;98437.19;10372308;28;20060;-59
2022/01/27 04:53:32;;;;;;;154.38;87.68;;;;;;;-2.78;78.25;98455.25;10372287;28;20076;-59
2022/01/27 04:58:33;;;;;;;154.07;86.90;;;;;;;-2.77;78.41;98461.19;10378003;28;20057;-59
2022/01/27 05:08:32;;;;;;;144.77;81.28;;;;;;;-2.50;77.61;98470.53;10380666;28;20068;-59
2022/01/27 05:13:39;;;;;;;153.70;87.90;;;;;;;-2.38;77.81;98472.03;10379588;28;20360;-59
2022/01/27 05:18:38;;;;;;;145.13;84.82;;;;;;;-2.31;77.67;98472.53;10379340;28;20183;-59
2022/01/27 05:23:37;;;;;;;153.48;87.10;;;;;;;-2.30;77.07;98488.66;10378725;28;20069;-59
2022/01/27 05:28:36;;;;;;;160.95;93.38;;;;;;;-2.22;77.42;98479.81;10378089;28;20072;-59
2022/01/27 05:33:35;;;;;;;164.55;93.68;;;;;;;-2.35;77.48;98482.41;10374588;28;20024;-59
2022/01/27 05:38:35;;;;;;;167.77;97.72;;;;;;;-2.32;77.54;98482.59;10378343;28;20029;-59
2022/01/27 05:43:34;;;;;;;177.73;101.55;;;;;;;-2.21;77.28;98488.34;10374835;28;20080;-59
2022/01/27 05:48:33;;;;;;;178.32;98.28;;;;;;;-2.09;77.24;98489.06;10325456;28;20136;-59
2022/01/27 05:53:33;;;;;;;;;;;;;;;-2.17;77.53;98493.72;10378108;28;20068;-59
2022/01/27 05:58:32;;;;;;;244.63;132.55;;;;;;;-2.10;77.18;98500.03;10374869;28;20495;-59
2022/01/27 06:03:31;;;;;;;279.05;149.20;;;;;;;-2.28;77.38;98494.72;10373714;28;20049;-59
2022/01/27 06:08:30;;;;;;;236.43;134.23;;;;;;;-2.40;78.11;98516.84;10373903;28;20035;-59
2022/01/27 06:13:29;;;;;;;231.52;132.32;;;;;;;-2.80;77.83;98420.38;10376827;28;20135;-59
2022/01/27 06:18:28;;;;;;;228.73;121.90;;;;;;;-2.17;77.77;98526.75;10377284;28;20147;-59
2022/01/27 06:23:27;;;;;;;204.63;113.03;;;;;;;-2.08;77.57;98517.16;10376250;28;20028;-59
2022/01/27 06:28:26;;;;;;;195.45;109.88;;;;;;;-2.36;77.74;98468.84;10372317;28;20064;-59
2022/01/27 06:33:25;;;;;;;201.10;115.55;;;;;;;-1.88;76.82;98528.50;10375924;28;20460;-59
2022/01/27 06:38:24;;;;;;;191.48;113.43;;;;;;;-1.78;77.11;98532.47;10375212;28;20500;-59
2022/01/27 06:43:23;;;;;;;219.02;123.95;;;;;;;-1.64;77.37;98535.84;10364507;28;20073;-59
2022/01/27 06:48:22;;;;;;;226.27;129.15;;;;;;;-1.56;76.71;98532.09;10349303;28;20104;-59
2022/01/27 06:53:22;;;;;;;207.88;121.45;;;;;;;-1.36;76.61;98538.34;10340640;28;20037;-59
2022/01/27 06:58:21;;;;;;;193.55;111.70;;;;;;;-1.20;76.86;98541.78;10369948;28;20581;-59
2022/01/27 07:03:20;;;;;;;209.30;121.10;;;;;;;-1.14;76.88;98531.94;10373849;28;20511;-60
2022/01/27 07:08:19;;;;;;;233.88;133.98;;;;;;;-0.98;76.21;98538.78;10336152;28;20025;-59
2022/01/27 07:13:18;;;;;;;248.93;143.52;;;;;;;-0.86;75.29;98540.38;10339232;28;20394;-59
2022/01/27 07:18:17;;;;;;;244.55;143.48;;;;;;;-0.72;75.78;98538.59;10371176;28;20021;-59
2022/01/27 07:23:16;;;;;;;262.17;157.00;;;;;;;-0.51;75.58;98541.47;10361408;28;20047;-59
2022/01/27 07:28:15;;;;;;;268.50;159.63;;;;;;;-0.25;74.56;98526.66;10374622;28;20116;-59
2022/01/27 07:33:14;;;;;;;274.65;164.40;;;;;;;-0.81;74.25;98406.47;10374028;28;20040;-59
2022/01/27 07:38:13;;;;;;;356.20;210.93;;;;;;;0.11;73.27;98524.34;10373559;28;20029;-59
2022/01/27 07:43:12;;;;;;;259.42;152.73;;;;;;;0.17;73.31;98511.88;10359921;28;20072;-59
2022/01/27 07:48:11;;;;;;;183.50;116.22;;;;;;;0.29;72.69;98524.41;10371889;28;20081;-59
2022/01/27 07:53:10;;;;;;;189.13;114.28;;;;;;;0.34;71.00;98531.50;10373102;28;20040;-59
2022/01/27 07:58:09;;;;;;;;;;;;;;;0.35;71.57;98530.69;10344473;28;20060;-59
2022/01/27 08:03:08;;;;;;;181.55;111.32;;;;;;;0.35;71.12;98527.28;10330912;28;20316;-60
2022/01/27 08:08:07;;;;;;;221.10;139.43;;;;;;;0.41;70.92;98531.03;10332823;28;20034;-59
2022/01/27 08:13:07;;;;;;;229.65;139.55;;;;;;;0.79;70.09;98524.41;10333444;28;20407;-59
2022/01/27 08:18:08;;;;;;;208.50;128.27;;;;;;;0.81;69.41;98479.38;10371663;28;20051;-59
2022/01/27 08:23:07;;;;;;;186.38;121.10;;;;;;;1.48;69.36;98531.97;10372363;28;20106;-59
2022/01/27 08:28:17;;;;;;;199.23;125.63;;;;;;;1.83;68.42;98525.06;10372991;28;20075;-59
2022/01/27 08:33:18;;;;;;;184.85;115.15;;;;;;;1.93;66.75;98537.50;10371152;28;20088;-59
2022/01/27 08:38:17;;;;;;;167.55;105.15;;;;;;;1.80;65.24;98525.81;10372566;28;20060;-59
2022/01/27 08:43:16;;;;;;;175.48;110.70;;;;;;;1.61;65.47;98507.88;10372692;28;20021;-59
2022/01/27 08:48:18;;;;;;;148.55;94.50;;;;;;;1.65;64.97;98535.34;10372485;28;20452;-59
2022/01/27 08:53:17;;;;;;;167.15;109.97;;;;;;;1.66;65.26;98543.09;10346403;28;20134;-60
2022/01/27 08:58:16;;;;;;;178.95;113.80;;;;;;;1.75;65.99;98533.28;10331740;28;20022;-60
2022/01/27 09:03:15;;;;;;;172.88;112.30;;;;;;;1.91;65.81;98534.00;10371371;28;20480;-61
2022/01/27 09:08:14;;;;;;;181.27;119.13;;;;;;;2.09;65.36;98518.56;10371800;28;20525;-61
2022/01/27 09:13:14;;;;;;;163.93;105.03;;;;;;;2.20;64.38;98531.84;10371436;28;20067;-58
2022/01/27 09:18:14;;;;;;;162.45;103.05;;;;;;;1.57;64.84;98482.94;10371450;28;20064;-60
2022/01/27 09:23:14;;;;;;;155.68;98.60;;;;;;;1.84;64.55;98537.06;10371103;28;20523;-58
2022/01/27 09:28:15;;;;;;;132.77;84.82;;;;;;;1.73;65.02;98537.44;10371630;28;20064;-58
2022/01/27 09:33:14;;;;;;;127.45;84.45;;;;;;;1.60;64.41;98519.78;10371027;28;20057;-58
2022/01/27 09:38:13;;;;;;;166.57;108.22;;;;;;;1.48;64.79;98517.53;10370846;28;20062;-58
2022/01/27 09:43:12;;;;;;;157.27;97.75;;;;;;;1.24;65.39;98517.22;10375404;28;20083;-58
2022/01/27 09:48:16;;;;;;;;;;;;;;;1.26;65.62;98510.50;10378882;28;20522;-58
2022/01/27 09:53:16;;;;;;;169.38;102.68;;;;;;;0.64;66.06;98424.06;10377999;28;19956;-58
2022/01/27 09:58:15;;;;;;;157.27;99.20;;;;;;;1.30;66.23;98499.63;10378444;28;20063;-58
2022/01/27 10:03:14;;;;;;;169.95;102.35;;;;;;;1.40;66.29;98467.69;10377168;28;20053;-59
2022/01/27 10:08:18;;;;;;;112.07;68.93;;;;;;;1.71;65.51;98484.44;10377533;28;20487;-59
2022/01/27 10:13:40;;;;;;;88.18;54.60;;;;;;;1.86;64.77;98468.94;10377775;28;20056;-59
2022/01/27 10:18:43;;;;;;;86.75;53.53;;;;;;;2.09;65.24;98478.50;10377163;28;20444;-59
2022/01/27 10:23:44;;;;;;;49.30;28.42;;;;;;;2.19;62.69;98473.78;10376591;28;20068;-59
2022/01/27 10:34:06;;;;;;;33.25;21.23;;;;;;;2.28;60.54;98464.81;10376985;28;20079;-58
2022/01/27 10:39:24;;;;;;;31.83;19.30;;;;;;;2.32;59.25;98469.22;10376275;28;20467;-59
2022/01/27 10:44:43;;;;;;;26.80;16.92;;;;;;;2.36;59.01;98463.44;10375627;28;20434;-59
2022/01/27 10:49:49;;;;;;;18.95;11.65;;;;;;;2.54;57.77;98453.09;10377050;28;20052;-59
2022/01/27 10:54:56;;;;;;;20.00;12.70;;;;;;;2.73;56.80;98438.50;10375344;28;20471;-59
2022/01/27 11:00:14;;;;;;;19.38;12.43;;;;;;;2.94;56.66;98423.97;10389405;28;20596;-59
2022/01/27 11:05:22;;;;;;;21.23;12.27;;;;;;;3.05;55.41;98426.97;10375324;28;20459;-59
2022/01/27 11:10:20;;;;;;;20.15;12.35;;;;;;;2.96;54.56;98401.84;10375427;28;20120;-59
2022/01/27 11:15:21;;;;;;;19.70;13.00;;;;;;;2.95;54.04;98404.31;10375010;28;20127;-60
2022/01/27 11:20:35;;;;;;;17.42;9.48;;;;;;;3.18;54.45;98402.66;10374944;28;20079;-59
2022/01/27 11:30:56;;;;;;;15.07;9.82;;;;;;;3.61;53.92;98388.88;10374732;28;20072;-59
2022/01/27 11:36:19;;;;;;;14.55;9.13;;;;;;;3.73;53.41;98373.94;10374117;28;20100;-59
2022/01/27 11:41:36;;;;;;;14.23;9.55;;;;;;;3.85;51.52;98382.06;10374327;28;20068;-59
2022/01/27 11:46:35;;;;;;;16.65;10.32;;;;;;;3.99;51.85;98374.84;10373746;28;20496;-59
2022/01/27 11:51:34;;;;;;;17.17;10.55;;;;;;;4.21;50.96;98373.88;10373426;28;20480;-59
2022/01/27 11:56:36;;;;;;;18.10;11.02;;;;;;;4.23;48.98;98377.38;10374282;28;20029;-60
2022/01/27 12:01:37;;;;;;;16.95;10.57;;;;;;;4.30;49.10;98368.19;10373375;28;20481;-59
2022/01/27 12:07:02;;;;;;;19.20;11.68;;;;;;;4.12;49.00;98362.44;10372835;28;20092;-59
2022/01/27 12:12:06;;;;;;;16.55;11.55;;;;;;;4.13;48.66;98354.78;10373056;28;20079;-60
2022/01/27 12:17:08;;;;;;;17.05;10.63;;;;;;;4.12;48.75;98353.03;10373361;28;20056;-60
2022/01/27 12:22:09;;;;;;;15.65;10.02;;;;;;;4.20;47.80;98349.03;10372661;28;20079;-59
2022/01/27 12:27:18;;;;;;;19.40;11.48;;;;;;;4.24;47.87;98340.63;10372201;28;20091;-60
2022/01/27 12:32:17;;;;;;;19.58;11.70;;;;;;;4.18;47.42;98331.81;10372966;28;20064;-60
2022/01/27 12:37:20;;;;;;;17.50;11.70;;;;;;;4.02;47.96;98289.34;10372448;28;20029;-60
2022/01/27 12:42:21;;;;;;;18.58;12.35;;;;;;;4.23;47.36;98310.59;10372079;28;20060;-59
2022/01/27 12:47:20;;;;;;;15.80;10.50;;;;;;;4.25;47.06;98305.50;10372870;28;20072;-59
2022/01/27 12:52:27;;;;;;;11.25;6.80;;;;;;;4.44;47.04;98295.00;10371945;28;20072;-59
2022/01/27 12:57:29;;;;;;;10.90;6.38;;;;;;;4.62;46.52;98291.25;10372250;28;20468;-59
2022/01/27 13:02:29;;;;;;;27.67;14.45;;;;;;;4.43;44.21;98284.66;10372218;28;20053;-59
2022/01/27 13:07:29;;;;;;;8.05;5.40;;;;;;;4.23;43.48;98248.94;10372577;28;20111;-59
2022/01/27 13:12:35;;;;;;;9.75;6.35;;;;;;;4.59;44.60;98288.59;10371898;28;20060;-59
2022/01/27 13:22:50;;;;;;;14.93;10.30;;;;;;;4.62;44.85;98278.41;10379612;28;20079;-60
2022/01/27 13:28:03;;;;;;;23.27;12.90;;;;;;;4.61;44.28;98267.25;10377616;28;20069;-60
2022/01/27 13:33:06;;;;;;;241.68;102.95;;;;;;;4.21;43.98;98213.75;10378254;28;20476;-59
2022/01/27 13:38:28;;;;;;;24.02;13.43;;;;;;;4.28;44.43;98210.56;10379515;28;20496;-57
2022/01/27 13:43:40;;;;;;;45.95;24.58;;;;;;;4.47;43.89;98282.22;10378749;28;20072;-59
2022/01/27 13:48:42;;;;;;;16.17;9.85;;;;;;;4.29;44.15;98282.53;10378049;28;20065;-60
2022/01/27 13:53:58;;;;;;;40.95;22.00;;;;;;;4.37;44.77;98293.06;10379113;28;20080;-60
2022/01/27 13:59:10;;;;;;;73.03;41.33;;;;;;;4.43;44.71;98300.06;10378032;28;20459;-60
2022/01/27 14:04:09;;;;;;;23.50;13.32;;;;;;;4.22;45.06;98236.94;10377868;28;20088;-60
2022/01/27 14:09:18;;;;;;;14.68;9.48;;;;;;;4.66;45.24;98290.53;10378052;28;20076;-58
2022/01/27 14:14:18;;;;;;;16.98;10.57;;;;;;;4.56;46.06;98267.94;10377646;28;20069;-58
2022/01/27 14:19:17;;;;;;;15.80;10.43;;;;;;;4.54;46.77;98298.72;10377408;28;20071;-59
2022/01/27 14:24:21;;;;;;;17.02;10.10;;;;;;;4.36;47.08;98263.06;10377498;28;20028;-58
2022/01/27 14:29:20;;;;;;;20.42;13.45;;;;;;;4.37;48.02;98287.06;10375732;28;20099;-59
2022/01/27 14:34:31;;;;;;;20.30;13.50;;;;;;;4.24;48.19;98291.81;10376387;28;20061;-59
2022/01/27 14:39:30;;;;;;;20.98;13.07;;;;;;;3.95;48.87;98265.16;10376350;28;20430;-59
2022/01/27 14:44:31;;;;;;;20.85;13.07;;;;;;;3.89;48.90;98294.88;10375300;28;20055;-59
2022/01/27 14:49:30;;;;;;;22.20;14.38;;;;;;;3.63;48.90;98299.97;10376052;28;20076;-59
2022/01/27 14:54:29;;;;;;;24.85;15.30;;;;;;;3.56;49.42;98296.31;10375858;28;20035;-59
2022/01/27 14:59:28;;;;;;;20.95;13.07;;;;;;;3.35;49.59;98291.28;10376097;28;20025;-58
2022/01/27 15:04:30;;;;;;;13.60;9.65;;;;;;;2.55;50.50;98198.66;10375991;28;20087;-59
2022/01/27 15:09:31;;;;;;;18.38;11.98;;;;;;;2.93;50.34;98291.50;10374840;28;20135;-59
2022/01/27 15:19:47;;;;;;;17.77;11.82;;;;;;;2.49;51.86;98290.66;10374957;28;20064;-59
2022/01/27 15:24:46;;;;;;;20.35;13.65;;;;;;;2.30;51.95;98277.91;10375183;28;20032;-59
2022/01/27 15:29:45;;;;;;;25.38;16.58;;;;;;;2.20;52.02;98275.81;10374997;28;20462;-58
2022/01/27 15:34:45;;;;;;;27.10;15.32;;;;;;;2.01;52.58;98292.97;10373489;28;20075;-58
2022/01/27 15:39:49;;;;;;;27.20;17.13;;;;;;;1.82;53.00;98287.91;10373972;28;20065;-58
2022/01/27 15:44:48;;;;;;;28.73;17.75;;;;;;;1.65;53.56;98303.41;10374410;28;20071;-59
2022/01/27 15:49:47;;;;;;;21.08;13.52;;;;;;;1.49;53.98;98301.00;10373549;28;20076;-59
2022/01/27 15:54:46;;;;;;;24.50;14.10;;;;;;;1.34;54.51;98298.63;10373601;28;20109;-59
2022/01/27 15:59:49;;;;;;;24.45;14.18;;;;;;;1.17;54.97;98297.91;10372815;28;20072;-59
2022/01/27 16:04:49;;;;;;;22.50;14.45;;;;;;;0.93;55.70;98286.59;10372201;28;20183;-59
2022/01/27 16:09:48;;;;;;;34.90;22.75;;;;;;;0.69;56.40;98266.78;10370803;28;20073;-59
2022/01/27 16:14:51;;;;;;;42.63;27.92;;;;;;;0.76;56.92;98302.03;10371224;28;20060;-58
2022/01/27 16:19:53;;;;;;;46.17;29.42;;;;;;;0.59;57.55;98288.47;10369810;28;20056;-58
2022/01/27 16:24:53;;;;;;;42.03;26.13;;;;;;;0.34;57.93;98281.34;10372458;28;20068;-59
2022/01/27 16:29:53;;;;;;;39.60;23.02;;;;;;;0.36;57.99;98305.25;10372600;28;20575;-58
2022/01/27 16:34:52;;;;;;;32.58;21.42;;;;;;;0.25;58.72;98311.53;10370512;28;20068;-58
2022/01/27 16:39:51;;;;;;;28.77;18.70;;;;;;;0.14;59.12;98299.91;10370563;28;20029;-59
2022/01/27 16:44:50;;;;;;;24.67;15.43;;;;;;;-0.84;59.31;98161.69;10371043;28;20037;-58
2022/01/27 16:49:51;;;;;;;28.70;15.48;;;;;;;-0.45;60.19;98243.47;10369983;28;20404;-59
2022/01/27 16:54:51;;;;;;;21.35;13.48;;;;;;;-0.03;60.20;98315.28;10377716;28;20068;-59
2022/01/27 16:59:50;;;;;;;18.00;10.48;;;;;;;-0.04;60.94;98313.53;10378733;28;20455;-59
2022/01/27 17:04:49;;;;;;;19.05;11.77;;;;;;;-0.32;61.22;98267.94;10322993;28;20586;-58
2022/01/27 17:09:48;;;;;;;19.58;12.05;;;;;;;-0.02;61.19;98316.13;10337017;28;20073;-58
2022/01/27 17:14:47;;;;;;;19.88;12.73;;;;;;;-0.19;61.77;98277.06;10338147;28;20095;-59
2022/01/27 17:19:48;;;;;;;20.83;12.60;;;;;;;-0.18;61.98;98289.03;10330511;28;20041;-59
2022/01/27 17:24:49;;;;;;;26.27;14.57;;;;;;;-0.49;61.85;98235.59;10379123;28;20154;-59
2022/01/27 17:29:48;;;;;;;24.80;15.45;;;;;;;-0.15;61.82;98301.91;10365495;28;20112;-59
2022/01/27 17:34:47;;;;;;;23.00;14.05;;;;;;;-0.55;61.94;98241.28;10360070;28;20048;-59
2022/01/27 17:39:46;;;;;;;19.73;12.32;;;;;;;-0.20;62.38;98294.03;10374627;28;20055;-59
2022/01/27 17:44:47;;;;;;;23.13;13.32;;;;;;;-0.21;61.76;98292.25;10337939;28;20061;-59
2022/01/27 17:49:46;;;;;;;19.48;11.70;;;;;;;-0.30;61.97;98290.94;10336114;28;20092;-59
2022/01/27 17:54:45;;;;;;;20.35;12.45;;;;;;;-0.35;62.63;98287.28;10334330;28;20035;-59
2022/01/27 17:59:44;;;;;;;19.73;12.07;;;;;;;-0.39;61.64;98276.94;10336197;28;20495;-59
2022/01/27 18:04:43;;;;;;;20.60;11.73;;;;;;;-0.82;62.22;98211.03;10337112;28;20413;-59
2022/01/27 18:09:48;;;;;;;23.73;13.65;;;;;;;-0.47;62.53;98259.50;10335503;28;20469;-59
2022/01/27 18:14:47;;;;;;;19.40;11.45;;;;;;;-0.80;62.01;98216.22;10340384;28;20098;-59
2022/01/27 18:19:46;;;;;;;22.75;12.73;;;;;;;-0.71;62.27;98238.75;10345737;28;20076;-59
2022/01/27 18:24:45;;;;;;;;;;;;;;;-0.56;62.04;98262.44;10335872;28;20080;-59
2022/01/27 18:29:44;;;;;;;101.20;58.53;;;;;;;-0.73;62.65;98263.28;10332592;28;19956;-59
2022/01/27 18:34:42;;;;;;;91.13;55.85;;;;;;;-0.87;63.35;98265.13;10334543;28;20055;-59
2022/01/27 18:39:41;;;;;;;117.78;73.43;;;;;;;-1.33;63.54;98222.84;10334683;28;20048;-59
2022/01/27 18:44:40;;;;;;;96.38;55.83;;;;;;;-1.34;65.01;98263.50;10334753;28;20483;-59
2022/01/27 18:49:40;;;;;;;95.20;57.33;;;;;;;-1.47;65.09;98269.56;10335220;28;20519;-59
2022/01/27 18:54:39;;;;;;;117.55;70.68;;;;;;;-1.73;65.65;98235.94;10335018;28;20068;-59
2022/01/27 18:59:38;;;;;;;117.60;69.43;;;;;;;-2.36;65.90;98140.06;10334966;28;20092;-59
2022/01/27 19:04:38;;;;;;;116.03;70.78;;;;;;;-1.80;66.25;98241.50;10334589;28;20108;-59
2022/01/27 19:09:37;;;;;;;80.80;50.55;;;;;;;-1.91;66.85;98238.38;10332883;28;20076;-59
2022/01/27 19:14:36;;;;;;;80.75;48.75;;;;;;;-1.92;66.69;98226.44;10328078;28;20072;-59
2022/01/27 19:19:38;;;;;;;73.00;43.83;;;;;;;-1.96;67.05;98222.00;10332236;28;20075;-59
2022/01/27 19:24:37;;;;;;;72.38;42.22;;;;;;;-1.99;67.36;98243.81;10332887;28;20495;-59
2022/01/27 19:29:43;;;;;;;86.88;54.78;;;;;;;-2.11;68.06;98234.69;10331901;28;20064;-58
2022/01/27 19:34:43;;;;;;;102.90;62.58;;;;;;;-2.20;68.99;98230.78;10331616;28;20072;-59
2022/01/27 19:39:43;;;;;;;148.60;89.38;;;;;;;-2.66;70.02;98170.59;10332427;28;20065;-59
2022/01/27 19:44:42;;;;;;;128.63;75.18;;;;;;;-3.09;70.00;98109.72;10331532;28;20072;-59
2022/01/27 19:49:41;;;;;;;;;;;;;;;-2.32;69.61;98224.19;10331695;28;20133;-59
2022/01/27 19:54:41;;;;;;;67.00;39.55;;;;;;;-2.31;69.25;98210.72;10331590;28;19988;-59
2022/01/27 19:59:41;;;;;;;53.47;31.67;;;;;;;-2.29;68.91;98203.16;10330767;28;20140;-59
2022/01/27 20:04:40;;;;;;;58.63;32.88;;;;;;;-2.25;68.71;98194.06;10330974;28;20085;-59
2022/01/27 20:09:41;;;;;;;79.97;44.28;;;;;;;-2.34;69.34;98189.31;10331258;28;20076;-59
2022/01/27 20:14:45;;;;;;;139.95;77.78;;;;;;;-2.29;69.30;98176.09;10305687;28;20499;-59
2022/01/27 20:19:50;;;;;;;198.32;106.25;;;;;;;-2.40;69.85;98178.84;10290906;28;20069;-59
2022/01/27 20:24:51;;;;;;;216.82;121.88;;;;;;;-2.51;70.41;98173.13;10290764;28;20073;-59
2022/01/27 20:29:50;;;;;;;224.45;128.05;;;;;;;-2.46;70.20;98173.38;10290662;28;20484;-59
2022/01/27 20:34:49;;;;;;;275.25;159.00;;;;;;;-2.99;70.28;98104.41;10279038;28;20120;-59
2022/01/27 20:39:48;;;;;;;251.73;135.77;;;;;;;-2.65;69.99;98169.81;10328550;28;20102;-59
2022/01/27 20:44:46;;;;;;;162.43;88.82;;;;;;;-2.74;70.15;98161.66;10330277;28;20041;-59
2022/01/27 20:49:46;;;;;;;126.00;70.22;;;;;;;-2.86;70.14;98161.81;10328591;28;20029;-59
2022/01/27 20:54:45;;;;;;;94.35;54.05;;;;;;;-2.94;70.17;98153.78;10330239;28;20095;-59
2022/01/27 20:59:44;;;;;;;92.03;51.47;;;;;;;-3.07;70.13;98138.59;10327280;28;20073;-59
2022/01/27 21:04:43;;;;;;;74.75;45.63;;;;;;;-3.02;70.50;98162.59;10329328;28;20045;-59
2022/01/27 21:09:42;;;;;;;64.30;36.50;;;;;;;-3.22;70.63;98097.13;10324458;28;20517;-60
2022/01/27 21:14:41;;;;;;;;;;;;;;;-2.83;70.47;98145.88;10331726;28;20525;-60
2022/01/27 21:19:40;;;;;;;200.48;101.68;;;;;;;-2.91;70.10;98132.75;10331173;28;20080;-59
2022/01/27 21:24:39;;;;;;;217.38;112.22;;;;;;;-2.91;70.47;98141.25;10330064;28;20830;-59
2022/01/27 21:29:38;;;;;;;151.68;79.15;;;;;;;-3.16;70.22;98097.44;10330383;28;20068;-60
2022/01/27 21:34:47;;;;;;;138.45;71.38;;;;;;;-3.35;70.16;98053.25;10330605;28;20072;-60
2022/01/27 21:39:47;;;;;;;110.33;57.37;;;;;;;-2.83;70.12;98131.50;10329457;28;20064;-60
2022/01/27 21:44:47;;;;;;;104.38;54.03;;;;;;;-2.78;70.13;98124.16;10337830;28;20299;-60
2022/01/27 21:49:46;;;;;;;144.27;70.82;;;;;;;-2.81;70.35;98135.03;10337981;28;20064;-60
2022/01/27 21:54:46;;;;;;;;;;;;;;;-2.88;70.58;98134.59;10337626;28;20088;-60
2022/01/27 21:59:47;;;;;;;167.00;78.82;;;;;;;-2.87;69.85;98132.16;10335130;28;19952;-59
2022/01/27 22:04:46;;;;;;;118.70;59.10;;;;;;;-2.99;70.39;98134.88;10335591;28;20080;-60
2022/01/27 22:09:45;;;;;;;96.72;50.40;;;;;;;-3.25;70.30;98074.06;10332628;28;20065;-60
2022/01/27 22:14:44;;;;;;;88.90;45.08;;;;;;;-2.84;70.40;98122.16;10336057;28;20036;-60
2022/01/27 22:19:45;;;;;;;109.78;55.13;;;;;;;-2.87;70.59;98116.00;10336631;28;20072;-60
2022/01/27 22:24:44;;;;;;;131.90;67.25;;;;;;;-2.81;70.06;98121.47;10334918;28;20080;-60
2022/01/27 22:29:43;;;;;;;132.98;70.10;;;;;;;-3.33;70.93;98064.34;10334292;28;20030;-60
2022/01/27 22:34:42;;;;;;;134.20;70.40;;;;;;;-3.00;70.52;98115.31;10334382;28;20033;-60
2022/01/27 22:39:41;;;;;;;138.25;71.88;;;;;;;-2.99;70.49;98114.56;10332811;28;20092;-60
2022/01/27 22:44:40;;;;;;;94.43;50.03;;;;;;;-2.99;70.17;98116.19;10330136;28;20025;-60
2022/01/27 22:49:39;;;;;;;90.90;50.88;;;;;;;-3.04;70.87;98108.31;10333103;28;20030;-60
2022/01/27 22:54:38;;;;;;;103.03;56.63;;;;;;;-2.97;70.87;98125.69;10333657;28;20044;-60
2022/01/27 22:59:37;;;;;;;61.45;32.22;;;;;;;-3.43;70.35;98034.19;10333594;28;20574;-60
2022/01/27 23:04:36;;;;;;;65.55;32.53;;;;;;;-2.90;70.71;98109.09;10333176;28;20524;-59
2022/01/27 23:09:35;;;;;;;37.17;18.35;;;;;;;-2.75;70.66;98104.91;10331982;28;20034;-60
2022/01/27 23:19:42;;;;;;;53.00;29.65;;;;;;;-2.26;69.76;98096.59;10331306;28;20088;-60
2022/01/27 23:24:45;;;;;;;58.47;31.52;;;;;;;-2.22;69.06;98092.53;10334113;28;20065;-60
2022/01/27 23:29:50;;;;;;;68.78;41.17;;;;;;;-2.93;68.95;97992.13;10333516;28;20464;-60
2022/01/27 23:34:50;;;;;;;55.88;33.05;;;;;;;-2.44;68.45;98082.88;10333629;28;20217;-59
2022/01/27 23:40:03;;;;;;;50.45;27.73;;;;;;;-2.54;68.65;98087.44;10333829;28;20499;-59
2022/01/27 23:45:14;;;;;;;68.60;35.30;;;;;;;-2.62;68.60;98082.72;10330131;28;20084;-59
2022/01/27 23:50:19;;;;;;;79.25;39.47;;;;;;;-2.76;68.85;98071.78;10333401;28;20061;-60
